createdAt,value
2018-08-30T00:01:02.348Z,22.96
2018-08-30T00:03:31.730Z,22.92
2018-08-30T00:06:00.718Z,22.90
2018-08-30T00:08:29.772Z,22.86
2018-08-30T00:10:58.907Z,22.83
2018-08-30T00:13:28.037Z,22.81
2018-08-30T00:15:57.236Z,22.77
2018-08-30T00:18:26.091Z,22.68
2018-08-30T00:20:54.887Z,22.60
2018-08-30T00:23:23.952Z,22.57
2018-08-30T00:25:52.984Z,22.53
2018-08-30T00:28:21.936Z,22.55
2018-08-30T00:30:51.056Z,22.55
2018-08-30T00:33:20.271Z,22.53
2018-08-30T00:35:49.298Z,22.51
2018-08-30T00:38:18.179Z,22.46
2018-08-30T00:40:47.660Z,22.47
2018-08-30T00:43:16.724Z,22.45
2018-08-30T00:45:45.753Z,22.48
2018-08-30T00:48:15.087Z,22.43
2018-08-30T00:50:44.081Z,22.38
2018-08-30T00:53:13.014Z,22.34
2018-08-30T00:55:42.058Z,22.31
2018-08-30T00:58:11.065Z,22.28
2018-08-30T01:00:42.755Z,22.23
2018-08-30T01:03:11.688Z,22.14
2018-08-30T01:05:40.843Z,22.13
2018-08-30T01:08:09.961Z,22.09
2018-08-30T01:10:38.918Z,22.03
2018-08-30T01:13:07.880Z,22.03
2018-08-30T01:15:36.812Z,22.05
2018-08-30T01:18:05.817Z,22.07
2018-08-30T01:20:34.917Z,22.05
2018-08-30T01:23:04.096Z,22.02
2018-08-30T01:25:33.187Z,21.93
2018-08-30T01:28:02.137Z,21.92
2018-08-30T01:30:31.453Z,21.94
2018-08-30T01:33:00.332Z,21.89
2018-08-30T01:35:29.240Z,21.78
2018-08-30T01:37:58.437Z,21.74
2018-08-30T01:40:27.463Z,21.79
2018-08-30T01:42:56.626Z,21.81
2018-08-30T01:45:26.068Z,21.81
2018-08-30T01:47:55.022Z,21.79
2018-08-30T01:50:24.079Z,21.78
2018-08-30T01:52:53.455Z,21.71
2018-08-30T01:55:22.428Z,21.64
2018-08-30T01:57:51.328Z,21.54
2018-08-30T02:00:20.391Z,21.45
2018-08-30T02:02:49.496Z,21.34
2018-08-30T02:05:18.660Z,21.33
2018-08-30T02:07:47.612Z,21.27
2018-08-30T02:10:17.660Z,21.26
2018-08-30T02:12:46.648Z,21.29
2018-08-30T02:15:15.634Z,21.27
2018-08-30T02:17:44.719Z,21.33
2018-08-30T02:20:13.662Z,21.32
2018-08-30T02:22:42.966Z,21.31
2018-08-30T02:25:11.989Z,21.36
2018-08-30T02:27:41.047Z,21.42
2018-08-30T02:30:11.266Z,21.33
2018-08-30T02:32:40.205Z,21.37
2018-08-30T02:35:09.046Z,21.29
2018-08-30T02:37:37.956Z,21.32
2018-08-30T02:40:06.859Z,21.22
2018-08-30T02:42:35.773Z,21.21
2018-08-30T02:45:04.794Z,21.17
2018-08-30T02:47:33.819Z,21.13
2018-08-30T02:50:02.929Z,21.13
2018-08-30T02:52:32.307Z,20.98
2018-08-30T02:55:01.104Z,20.96
2018-08-30T02:57:30.173Z,20.96
2018-08-30T02:59:59.160Z,21.01
2018-08-30T03:02:28.085Z,20.98
2018-08-30T03:04:57.024Z,20.89
2018-08-30T03:07:26.461Z,20.85
2018-08-30T03:09:55.373Z,20.86
2018-08-30T03:12:24.221Z,20.92
2018-08-30T03:15:04.123Z,20.95
2018-08-30T03:17:33.190Z,20.84
2018-08-30T03:20:02.109Z,20.80
2018-08-30T03:22:31.186Z,20.80
2018-08-30T03:25:00.296Z,20.76
2018-08-30T03:27:29.540Z,20.64
2018-08-30T03:29:58.928Z,20.63
2018-08-30T03:32:27.922Z,20.57
2018-08-30T03:34:57.360Z,20.61
2018-08-30T03:37:26.612Z,20.56
2018-08-30T03:39:55.541Z,20.56
2018-08-30T03:42:24.465Z,20.54
2018-08-30T03:44:54.715Z,20.56
2018-08-30T03:47:23.712Z,20.58
2018-08-30T03:49:52.721Z,20.59
2018-08-30T03:52:21.884Z,20.58
2018-08-30T03:54:50.904Z,20.57
2018-08-30T03:57:19.808Z,20.58
2018-08-30T03:59:49.489Z,20.58
2018-08-30T04:02:18.580Z,20.54
2018-08-30T04:04:47.517Z,20.65
2018-08-30T04:07:16.921Z,20.72
2018-08-30T04:09:45.931Z,20.83
2018-08-30T04:12:14.979Z,20.93
2018-08-30T04:14:44.022Z,21.06
2018-08-30T04:17:13.014Z,21.14
2018-08-30T04:19:42.004Z,21.19
2018-08-30T04:22:11.312Z,21.22
2018-08-30T04:24:40.257Z,21.28
2018-08-30T04:27:09.292Z,21.37
2018-08-30T04:29:38.792Z,21.43
2018-08-30T04:32:07.729Z,21.56
2018-08-30T04:34:36.704Z,21.62
2018-08-30T04:37:06.074Z,21.73
2018-08-30T04:39:35.040Z,21.79
2018-08-30T04:42:03.953Z,21.87
2018-08-30T04:44:33.345Z,21.98
2018-08-30T04:47:02.733Z,22.09
2018-08-30T04:49:31.826Z,22.16
2018-08-30T04:52:00.961Z,22.28
2018-08-30T04:54:29.904Z,22.35
2018-08-30T04:56:58.856Z,22.47
2018-08-30T04:59:28.107Z,22.55
2018-08-30T05:01:57.064Z,22.70
2018-08-30T05:04:26.227Z,22.80
2018-08-30T05:06:55.576Z,22.81
2018-08-30T05:09:24.558Z,22.92
2018-08-30T05:11:53.464Z,23.03
2018-08-30T05:14:22.483Z,23.17
2018-08-30T05:16:51.471Z,23.14
2018-08-30T05:19:20.376Z,23.23
2018-08-30T05:21:49.741Z,23.36
2018-08-30T05:24:18.612Z,23.39
2018-08-30T05:26:47.426Z,23.42
2018-08-30T05:29:16.806Z,23.42
2018-08-30T05:31:45.776Z,23.44
2018-08-30T05:34:14.834Z,23.45
2018-08-30T05:36:43.806Z,23.48
2018-08-30T05:39:12.694Z,23.39
2018-08-30T05:41:41.690Z,23.43
2018-08-30T05:44:11.186Z,23.40
2018-08-30T05:46:40.201Z,23.42
2018-08-30T05:49:09.217Z,23.38
2018-08-30T05:51:38.858Z,23.39
2018-08-30T05:54:07.988Z,23.45
2018-08-30T05:56:36.943Z,23.45
2018-08-30T05:59:06.335Z,23.62
2018-08-30T06:01:35.286Z,23.77
2018-08-30T06:04:04.265Z,23.85
2018-08-30T06:06:33.481Z,23.95
2018-08-30T06:09:02.491Z,24.01
2018-08-30T06:11:31.345Z,24.12
2018-08-30T06:14:00.696Z,24.15
2018-08-30T06:16:29.601Z,24.19
2018-08-30T06:18:58.501Z,24.14
2018-08-30T06:21:27.745Z,24.42
2018-08-30T06:23:56.711Z,24.56
2018-08-30T06:26:25.829Z,24.68
2018-08-30T06:28:56.009Z,24.75
2018-08-30T06:31:24.980Z,24.88
2018-08-30T06:33:53.936Z,24.96
2018-08-30T06:36:23.545Z,25.04
2018-08-30T06:38:52.454Z,25.11
2018-08-30T06:41:21.419Z,25.18
2018-08-30T06:43:50.808Z,25.25
2018-08-30T06:46:20.875Z,25.32
2018-08-30T06:48:49.945Z,25.43
2018-08-30T06:51:19.298Z,25.48
2018-08-30T06:53:48.295Z,25.51
2018-08-30T06:56:17.325Z,25.58
2018-08-30T06:58:46.260Z,25.58
2018-08-30T07:01:15.182Z,25.64
2018-08-30T07:03:44.213Z,25.73
2018-08-30T07:06:13.631Z,25.82
2018-08-30T07:08:42.573Z,25.87
2018-08-30T07:11:11.452Z,26.04
2018-08-30T07:13:40.508Z,26.12
2018-08-30T07:16:09.801Z,26.19
2018-08-30T07:18:38.831Z,26.32
2018-08-30T07:21:07.957Z,26.44
2018-08-30T07:23:36.915Z,26.53
2018-08-30T07:26:05.871Z,26.58
2018-08-30T07:28:35.432Z,26.62
2018-08-30T07:31:04.150Z,26.56
2018-08-30T07:33:33.133Z,26.67
2018-08-30T07:36:02.597Z,26.77
2018-08-30T07:38:31.586Z,26.85
2018-08-30T07:41:00.633Z,26.96
2018-08-30T07:43:29.896Z,26.73
2018-08-30T07:45:58.953Z,26.95
2018-08-30T07:48:27.825Z,27.03
2018-08-30T07:50:57.181Z,27.24
2018-08-30T07:53:26.231Z,27.22
2018-08-30T07:55:55.281Z,27.47
2018-08-30T07:58:25.228Z,27.51
2018-08-30T08:00:54.221Z,27.62
2018-08-30T08:03:23.235Z,27.70
2018-08-30T08:05:52.272Z,27.77
2018-08-30T08:08:21.237Z,27.81
2018-08-30T08:10:50.040Z,27.93
2018-08-30T08:13:19.208Z,28.06
2018-08-30T08:15:48.132Z,28.04
2018-08-30T08:18:16.971Z,27.99
2018-08-30T08:20:46.479Z,27.83
2018-08-30T08:23:15.434Z,28.11
2018-08-30T08:25:44.500Z,28.38
2018-08-30T08:28:13.486Z,28.40
2018-08-30T08:30:42.388Z,28.59
2018-08-30T08:33:11.211Z,28.69
2018-08-30T08:35:40.836Z,28.66
2018-08-30T08:38:09.712Z,28.80
2018-08-30T08:40:38.633Z,28.61
2018-08-30T08:43:07.701Z,28.90
2018-08-30T08:45:36.642Z,29.04
2018-08-30T08:48:05.632Z,29.15
2018-08-30T08:50:34.606Z,29.29
2018-08-30T08:53:03.552Z,29.43
2018-08-30T08:55:32.613Z,29.56
2018-08-30T08:58:01.729Z,29.66
2018-08-30T09:00:30.633Z,29.66
2018-08-30T09:02:59.822Z,29.70
2018-08-30T09:05:29.141Z,29.90
2018-08-30T09:07:57.991Z,30.04
2018-08-30T09:10:27.017Z,30.07
2018-08-30T09:12:56.029Z,30.19
2018-08-30T09:15:24.795Z,30.15
2018-08-30T09:17:53.725Z,30.21
2018-08-30T09:20:23.272Z,30.38
2018-08-30T09:22:52.282Z,30.56
2018-08-30T09:25:21.207Z,30.50
2018-08-30T09:27:50.544Z,30.15
2018-08-30T09:30:19.513Z,30.23
2018-08-30T09:32:48.561Z,30.25
2018-08-30T09:35:17.549Z,30.34
2018-08-30T09:37:46.598Z,30.38
2018-08-30T09:40:15.651Z,30.58
2018-08-30T09:42:44.890Z,30.42
2018-08-30T09:45:13.834Z,30.42
2018-08-30T09:47:42.732Z,30.39
2018-08-30T09:50:11.746Z,30.07
2018-08-30T09:52:40.829Z,30.48
2018-08-30T09:55:09.763Z,30.73
2018-08-30T09:57:39.150Z,30.88
2018-08-30T10:00:12.660Z,31.03
2018-08-30T10:02:46.792Z,31.09
2018-08-30T10:05:15.929Z,31.02
2018-08-30T10:07:44.842Z,30.92
2018-08-30T10:10:13.875Z,30.94
2018-08-30T10:12:42.762Z,31.01
2018-08-30T10:15:11.403Z,31.13
2018-08-30T10:17:40.416Z,31.38
2018-08-30T10:20:09.355Z,31.59
2018-08-30T10:22:38.488Z,31.63
2018-08-30T10:25:08.092Z,31.67
2018-08-30T10:27:37.061Z,31.45
2018-08-30T10:30:06.081Z,31.64
2018-08-30T10:32:35.405Z,31.81
2018-08-30T10:35:04.373Z,32.04
2018-08-30T10:37:33.388Z,32.17
2018-08-30T10:40:02.240Z,32.14
2018-08-30T10:42:31.160Z,31.76
2018-08-30T10:44:59.969Z,31.72
2018-08-30T10:47:29.280Z,31.52
2018-08-30T10:49:58.308Z,31.56
2018-08-30T10:52:27.330Z,31.56
2018-08-30T10:54:56.430Z,31.65
2018-08-30T10:57:25.363Z,31.62
2018-08-30T10:59:54.366Z,31.43
2018-08-30T11:02:25.269Z,31.50
2018-08-30T11:04:54.437Z,31.59
2018-08-30T11:07:23.585Z,31.75
2018-08-30T11:09:53.183Z,31.51
2018-08-30T11:12:22.163Z,31.71
2018-08-30T11:14:51.222Z,31.81
2018-08-30T11:17:21.069Z,31.91
2018-08-30T11:19:49.822Z,31.72
2018-08-30T11:22:18.952Z,31.74
2018-08-30T11:24:48.355Z,31.88
2018-08-30T11:27:17.268Z,32.00
2018-08-30T11:29:46.080Z,32.15
2018-08-30T11:32:15.240Z,32.33
2018-08-30T11:34:44.214Z,32.29
2018-08-30T11:37:13.404Z,32.12
2018-08-30T11:39:42.373Z,32.04
2018-08-30T11:42:11.413Z,32.01
2018-08-30T11:44:40.306Z,32.12
2018-08-30T11:47:09.276Z,32.27
2018-08-30T11:49:38.343Z,32.38
2018-08-30T11:52:07.591Z,32.44
2018-08-30T11:54:36.475Z,32.51
2018-08-30T11:57:05.395Z,32.40
2018-08-30T11:59:34.398Z,32.41
2018-08-30T12:02:03.866Z,32.48
2018-08-30T12:04:32.884Z,32.61
2018-08-30T12:07:02.135Z,32.75
2018-08-30T12:09:31.119Z,32.87
2018-08-30T12:12:02.165Z,32.93
2018-08-30T12:14:32.147Z,33.00
2018-08-30T12:17:01.313Z,33.01
2018-08-30T12:19:30.274Z,33.04
2018-08-30T12:21:59.770Z,33.11
2018-08-30T12:24:28.684Z,33.13
2018-08-30T12:26:57.806Z,33.11
2018-08-30T12:29:27.298Z,33.13
2018-08-30T12:31:56.531Z,33.12
2018-08-30T12:34:25.523Z,32.83
2018-08-30T12:36:54.907Z,32.84
2018-08-30T12:39:23.922Z,32.95
2018-08-30T12:41:53.049Z,33.04
2018-08-30T12:44:22.381Z,33.00
2018-08-30T12:46:51.429Z,32.86
2018-08-30T12:49:20.399Z,32.89
2018-08-30T12:51:50.551Z,32.94
2018-08-30T12:54:19.400Z,32.86
2018-08-30T12:56:48.459Z,32.91
2018-08-30T12:59:18.901Z,32.73
2018-08-30T13:01:47.888Z,32.76
2018-08-30T13:04:16.888Z,32.86
2018-08-30T13:06:50.573Z,33.01
2018-08-30T13:09:19.664Z,33.04
2018-08-30T13:11:48.730Z,33.09
2018-08-30T13:14:18.165Z,33.17
2018-08-30T13:16:46.940Z,33.10
2018-08-30T13:19:15.893Z,33.19
2018-08-30T13:21:45.599Z,33.29
2018-08-30T13:24:14.598Z,33.28
2018-08-30T13:26:43.665Z,33.37
2018-08-30T13:29:13.058Z,33.42
2018-08-30T13:31:42.678Z,33.51
2018-08-30T13:34:11.788Z,33.57
2018-08-30T13:36:41.525Z,33.41
2018-08-30T13:39:11.307Z,33.00
2018-08-30T13:41:40.719Z,32.90
2018-08-30T13:44:11.247Z,32.83
2018-08-30T13:46:41.356Z,32.85
2018-08-30T13:49:11.028Z,33.05
2018-08-30T13:51:40.555Z,33.08
2018-08-30T13:54:09.431Z,33.13
2018-08-30T13:56:38.109Z,33.08
2018-08-30T13:59:07.693Z,33.11
2018-08-30T14:01:36.308Z,33.09
2018-08-30T14:04:05.424Z,33.22
2018-08-30T14:06:34.320Z,33.24
2018-08-30T14:09:03.599Z,33.16
2018-08-30T14:11:32.436Z,33.02
2018-08-30T14:14:01.855Z,32.96
2018-08-30T14:16:30.435Z,33.12
2018-08-30T14:18:59.317Z,33.06
2018-08-30T14:21:28.371Z,32.92
2018-08-30T14:23:57.497Z,32.87
2018-08-30T14:26:26.268Z,32.85
2018-08-30T14:28:55.223Z,32.89
2018-08-30T14:31:24.250Z,32.84
2018-08-30T14:33:53.186Z,32.95
2018-08-30T14:36:22.306Z,32.90
2018-08-30T14:38:52.080Z,32.89
2018-08-30T14:41:21.224Z,32.86
2018-08-30T14:43:50.301Z,32.86
2018-08-30T14:46:19.172Z,32.78
2018-08-30T14:48:48.143Z,32.80
2018-08-30T14:51:17.803Z,32.91
2018-08-30T14:53:52.110Z,32.92
2018-08-30T14:56:15.635Z,32.87
2018-08-30T14:58:44.789Z,32.89
2018-08-30T15:01:13.734Z,32.86
2018-08-30T15:03:42.660Z,32.93
2018-08-30T15:06:11.936Z,32.84
2018-08-30T15:08:41.101Z,32.74
2018-08-30T15:11:10.289Z,32.69
2018-08-30T15:13:39.633Z,32.78
2018-08-30T15:16:08.978Z,32.70
2018-08-30T15:18:38.044Z,32.68
2018-08-30T15:21:06.968Z,32.55
2018-08-30T15:23:36.175Z,32.66
2018-08-30T15:26:05.248Z,32.57
2018-08-30T15:28:34.271Z,32.64
2018-08-30T15:31:03.341Z,32.60
2018-08-30T15:33:32.219Z,32.53
2018-08-30T15:36:01.453Z,32.50
2018-08-30T15:38:30.466Z,32.41
2018-08-30T15:40:59.423Z,32.47
2018-08-30T15:43:28.768Z,32.45
2018-08-30T15:45:57.612Z,32.33
2018-08-30T15:48:26.587Z,32.39
2018-08-30T15:50:55.471Z,32.30
2018-08-30T15:53:24.578Z,32.29
2018-08-30T15:55:53.836Z,32.20
2018-08-30T15:58:22.827Z,32.16
2018-08-30T16:00:51.829Z,32.12
2018-08-30T16:03:20.828Z,32.14
2018-08-30T16:05:50.383Z,32.05
2018-08-30T16:08:19.224Z,32.08
2018-08-30T16:10:48.227Z,32.00
2018-08-30T16:13:17.664Z,32.05
2018-08-30T16:15:46.582Z,31.86
2018-08-30T16:18:15.662Z,31.85
2018-08-30T16:20:45.624Z,31.78
2018-08-30T16:23:23.180Z,31.67
2018-08-30T16:25:52.589Z,31.57
2018-08-30T16:28:22.090Z,31.55
2018-08-30T16:30:50.999Z,31.48
2018-08-30T16:33:20.477Z,31.44
2018-08-30T16:35:49.483Z,31.35
2018-08-30T16:38:18.530Z,31.31
2018-08-30T16:40:47.884Z,31.30
2018-08-30T16:43:16.777Z,31.23
2018-08-30T16:45:45.979Z,31.16
2018-08-30T16:48:15.615Z,30.91
2018-08-30T16:50:44.430Z,30.83
2018-08-30T16:53:13.562Z,30.72
2018-08-30T16:55:42.949Z,30.60
2018-08-30T16:58:11.795Z,30.63
2018-08-30T17:00:40.745Z,30.54
2018-08-30T17:03:10.359Z,30.46
2018-08-30T17:05:39.315Z,30.32
2018-08-30T17:08:08.442Z,30.16
2018-08-30T17:10:38.046Z,30.07
2018-08-30T17:13:06.887Z,29.96
2018-08-30T17:15:35.832Z,29.83
2018-08-30T17:18:05.393Z,29.80
2018-08-30T17:21:48.799Z,29.85
2018-08-30T17:24:18.063Z,29.68
2018-08-30T17:26:47.002Z,29.55
2018-08-30T17:29:16.890Z,29.42
2018-08-30T17:31:46.288Z,29.30
2018-08-30T17:34:15.351Z,29.18
2018-08-30T17:36:44.475Z,29.12
2018-08-30T17:39:13.837Z,29.07
2018-08-30T17:41:42.791Z,28.98
2018-08-30T17:44:11.878Z,28.83
2018-08-30T17:46:40.941Z,28.76
2018-08-30T17:49:10.395Z,28.78
2018-08-30T17:51:39.740Z,28.77
2018-08-30T17:54:08.842Z,28.71
2018-08-30T17:56:37.797Z,28.61
2018-08-30T17:59:07.395Z,28.63
2018-08-30T18:01:36.512Z,28.55
2018-08-30T18:04:05.329Z,28.52
2018-08-30T18:06:34.380Z,28.41
2018-08-30T18:09:04.227Z,28.30
2018-08-30T18:11:33.113Z,28.21
2018-08-30T18:14:02.068Z,28.22
2018-08-30T18:16:31.191Z,28.13
2018-08-30T18:19:00.316Z,28.01
2018-08-30T18:21:29.377Z,27.97
2018-08-30T18:23:58.596Z,28.02
2018-08-30T18:26:28.246Z,28.04
2018-08-30T18:28:57.197Z,28.03
2018-08-30T18:31:26.254Z,28.03
2018-08-30T18:33:55.136Z,27.96
2018-08-30T18:36:24.022Z,27.82
2018-08-30T18:38:53.021Z,27.48
2018-08-30T18:41:22.201Z,27.33
2018-08-30T18:43:51.180Z,27.45
2018-08-30T18:46:20.314Z,27.41
2018-08-30T18:48:49.332Z,27.33
2018-08-30T18:51:18.436Z,27.28
2018-08-30T18:53:47.553Z,27.30
2018-08-30T18:56:17.151Z,27.08
2018-08-30T18:58:46.022Z,27.04
2018-08-30T19:01:14.912Z,27.01
2018-08-30T19:03:44.206Z,26.91
2018-08-30T19:06:13.133Z,26.89
2018-08-30T19:08:42.169Z,26.95
2018-08-30T19:11:11.099Z,26.82
2018-08-30T19:13:40.031Z,26.78
2018-08-30T19:16:14.610Z,26.81
2018-08-30T19:19:46.978Z,26.80
2018-08-30T19:22:16.349Z,26.78
2018-08-30T19:24:50.550Z,26.80
2018-08-30T19:27:19.982Z,26.77
2018-08-30T19:29:54.148Z,26.70
2018-08-30T19:32:23.445Z,26.67
2018-08-30T19:34:53.492Z,26.66
2018-08-30T19:37:22.516Z,26.65
2018-08-30T19:39:51.803Z,26.64
2018-08-30T19:42:20.805Z,26.67
2018-08-30T19:44:49.803Z,26.51
2018-08-30T19:47:18.720Z,26.40
2018-08-30T19:49:47.663Z,26.30
2018-08-30T19:52:16.691Z,26.21
2018-08-30T19:54:45.944Z,26.17
2018-08-30T19:57:14.919Z,26.05
2018-08-30T19:59:43.889Z,26.00
2018-08-30T20:02:12.893Z,25.92
2018-08-30T20:04:42.028Z,25.85
2018-08-30T20:07:10.920Z,25.82
2018-08-30T20:09:40.305Z,25.82
2018-08-30T20:12:09.240Z,25.79
2018-08-30T20:14:38.383Z,25.69
2018-08-30T20:17:07.843Z,25.65
2018-08-30T20:19:38.683Z,25.65
2018-08-30T20:22:11.799Z,25.59
2018-08-30T20:24:40.504Z,25.50
2018-08-30T20:27:10.050Z,25.46
2018-08-30T20:29:39.182Z,25.43
2018-08-30T20:32:08.240Z,25.39
2018-08-30T20:34:37.161Z,25.41
2018-08-30T20:37:06.490Z,25.37
2018-08-30T20:39:35.321Z,25.31
2018-08-30T20:42:04.313Z,25.23
2018-08-30T20:44:33.319Z,25.17
2018-08-30T20:47:02.260Z,25.11
2018-08-30T20:49:31.363Z,25.05
2018-08-30T20:52:00.528Z,24.97
2018-08-30T20:54:29.543Z,24.98
2018-08-30T20:56:58.510Z,24.93
2018-08-30T20:59:28.091Z,24.89
2018-08-30T21:01:57.026Z,24.86
2018-08-30T21:04:25.884Z,24.83
2018-08-30T21:06:55.161Z,24.74
2018-08-30T21:09:24.149Z,24.69
2018-08-30T21:11:53.140Z,24.67
2018-08-30T21:14:22.647Z,24.60
2018-08-30T21:16:51.476Z,24.66
2018-08-30T21:19:20.520Z,24.63
2018-08-30T21:21:49.871Z,24.58
2018-08-30T21:24:18.841Z,24.54
2018-08-30T21:26:47.756Z,24.52
2018-08-30T21:29:16.817Z,24.51
2018-08-30T21:31:45.805Z,24.62
2018-08-30T21:34:14.852Z,24.58
2018-08-30T21:36:44.256Z,24.53
2018-08-30T21:39:13.286Z,24.57
2018-08-30T21:41:42.272Z,24.52
2018-08-30T21:44:11.211Z,24.48
2018-08-30T21:46:40.420Z,24.50
2018-08-30T21:49:13.485Z,24.56
2018-08-30T21:51:42.785Z,24.45
2018-08-30T21:54:11.916Z,24.39
2018-08-30T21:56:40.905Z,24.31
2018-08-30T21:59:16.795Z,24.27
2018-08-30T22:01:55.304Z,24.28
2018-08-30T22:04:27.490Z,24.22
2018-08-30T22:06:56.656Z,24.17
2018-08-30T22:09:27.898Z,24.16
2018-08-30T22:11:57.896Z,24.11
2018-08-30T22:14:27.002Z,24.12
2018-08-30T22:16:56.006Z,24.05
2018-08-30T22:19:24.882Z,24.00
2018-08-30T22:21:53.629Z,24.06
2018-08-30T22:24:22.670Z,24.06
2018-08-30T22:26:52.143Z,24.04
2018-08-30T22:29:28.767Z,23.95
2018-08-30T22:31:58.111Z,23.93
2018-08-30T22:34:33.314Z,23.95
2018-08-30T22:37:07.852Z,23.95
2018-08-30T22:39:36.917Z,23.94
2018-08-30T22:42:06.101Z,23.98
2018-08-30T22:44:36.140Z,23.91
2018-08-30T22:47:05.213Z,23.87
2018-08-30T22:49:34.288Z,23.81
2018-08-30T22:52:09.356Z,23.81
2018-08-30T22:54:38.321Z,23.74
2018-08-30T22:57:07.337Z,23.73
2018-08-30T22:59:36.969Z,23.66
2018-08-30T23:02:07.048Z,23.56
2018-08-30T23:04:36.244Z,23.50
2018-08-30T23:07:05.686Z,23.43
2018-08-30T23:09:34.766Z,23.48
2018-08-30T23:12:03.822Z,23.40
2018-08-30T23:14:33.439Z,23.34
2018-08-30T23:17:02.775Z,23.32
2018-08-30T23:19:31.777Z,23.24
2018-08-30T23:22:01.040Z,23.18
2018-08-30T23:24:29.939Z,23.19
2018-08-30T23:26:58.891Z,23.22
2018-08-30T23:29:28.026Z,23.20
2018-08-30T23:31:57.078Z,23.17
2018-08-30T23:34:26.537Z,23.19
2018-08-30T23:36:59.366Z,23.16
2018-08-30T23:39:28.513Z,23.13
2018-08-30T23:41:57.483Z,23.15
2018-08-30T23:44:26.576Z,23.15
2018-08-30T23:46:55.544Z,23.13
2018-08-30T23:49:24.646Z,23.08
2018-08-30T23:51:53.624Z,23.07
2018-08-30T23:54:22.597Z,23.13
2018-08-30T23:56:51.690Z,23.15
2018-08-30T23:59:31.823Z,23.12
